UKV6351 YPDN-YPPH
Flight info
| Callsign | UKV6351 |
|---|---|
| Flight time | 3h 37m |
| Altitude | 36000 |
| Route | HELLI J151 CIN W257 NWN Q38 JULIM |
| Aircraft | A320/M-SDE3FGHIRWY/LB1 |
Departure
| Time | 2026-04-29 21:49 |
|---|---|
| Airport | Darwin International Airport / RAAF Darwin (YPDN) |
Arrival
| Time | 2026-04-30 01:27 |
|---|---|
| Airport | Perth International Airport (YPPH) |
| Time | Latitude | Longitude | Altitude | Speed | Heading |
|---|---|---|---|---|---|
| 2026-04-29 21:08 | -12.40915 | 130.87831 | 96 ft | 0 kts | 18° |
| 2026-04-29 21:33 | -12.40930 | 130.87826 | 95 ft | 2 kts | 18° |
| 2026-04-29 21:34 | -12.40946 | 130.87820 | 93 ft | 2 kts | 18° |
| 2026-04-29 21:34 | -12.40963 | 130.87817 | 94 ft | 2 kts | 345° |
| 2026-04-29 21:34 | -12.40978 | 130.87825 | 94 ft | 3 kts | 309° |
| 2026-04-29 21:34 | -12.40987 | 130.87840 | 94 ft | 2 kts | 290° |
| 2026-04-29 21:35 | -12.40988 | 130.87845 | 96 ft | 0 kts | 290° |
| 2026-04-29 21:44 | -12.40985 | 130.87836 | 94 ft | 3 kts | 289° |
| 2026-04-29 21:45 | -12.40976 | 130.87802 | 95 ft | 7 kts | 284° |
| 2026-04-29 21:45 | -12.40965 | 130.87737 | 96 ft | 12 kts | 277° |
| 2026-04-29 21:45 | -12.40968 | 130.87640 | 94 ft | 16 kts | 242° |
| 2026-04-29 21:45 | -12.41060 | 130.87582 | 98 ft | 16 kts | 202° |
| 2026-04-29 21:46 | -12.41071 | 130.87478 | 98 ft | 18 kts | 287° |
| 2026-04-29 21:46 | -12.41026 | 130.87347 | 100 ft | 21 kts | 290° |
| 2026-04-29 21:46 | -12.40976 | 130.87194 | 97 ft | 24 kts | 288° |
| 2026-04-29 21:46 | -12.40903 | 130.87024 | 93 ft | 25 kts | 293° |
| 2026-04-29 21:47 | -12.40943 | 130.86944 | 101 ft | 0 kts | 197° |
| 2026-04-29 21:47 | -12.40952 | 130.86942 | 102 ft | 4 kts | 192° |
| 2026-04-29 21:48 | -12.41000 | 130.86939 | 102 ft | 11 kts | 179° |
| 2026-04-29 21:48 | -12.41087 | 130.86969 | 100 ft | 13 kts | 120° |
| 2026-04-29 21:48 | -12.41090 | 130.86977 | 100 ft | 0 kts | 109° |
| 2026-04-29 21:48 | -12.41113 | 130.87060 | 101 ft | 45 kts | 107° |
| 2026-04-29 21:49 | -12.41298 | 130.87611 | 101 ft | 116 kts | 109° |
| 2026-04-29 21:49 | -12.41628 | 130.88573 | 97 ft | 168 kts | 109° |
| 2026-04-29 21:49 | -12.42029 | 130.89770 | 648 ft | 170 kts | 109° |
| 2026-04-29 21:49 | -12.42424 | 130.90944 | 1278 ft | 183 kts | 109° |
| 2026-04-29 21:50 | -12.42857 | 130.92233 | 1774 ft | 199 kts | 109° |
| 2026-04-29 21:50 | -12.43313 | 130.93594 | 2312 ft | 204 kts | 108° |
| 2026-04-29 21:50 | -12.43781 | 130.94997 | 2814 ft | 215 kts | 109° |
| 2026-04-29 21:50 | -12.44286 | 130.96501 | 3201 ft | 235 kts | 109° |
| 2026-04-29 21:51 | -12.44843 | 130.98161 | 3554 ft | 258 kts | 109° |
| 2026-04-29 21:51 | -12.45435 | 130.99930 | 4232 ft | 266 kts | 109° |
| 2026-04-29 21:51 | -12.47406 | 131.03032 | 5727 ft | 274 kts | 153° |
| 2026-04-29 21:52 | -12.49243 | 131.03469 | 5982 ft | 274 kts | 186° |
| 2026-04-29 21:52 | -12.51088 | 131.03024 | 6039 ft | 273 kts | 200° |
| 2026-04-29 21:52 | -12.52863 | 131.02277 | 6042 ft | 272 kts | 205° |
| 2026-04-29 21:52 | -12.54552 | 131.01466 | 6043 ft | 272 kts | 206° |
| 2026-04-29 21:53 | -12.56264 | 131.00640 | 6043 ft | 272 kts | 205° |
| 2026-04-29 21:53 | -12.57904 | 130.99687 | 6042 ft | 271 kts | 219° |
| 2026-04-29 21:53 | -12.59201 | 130.98298 | 6044 ft | 271 kts | 236° |
| 2026-04-29 21:53 | -12.60039 | 130.96553 | 6555 ft | 275 kts | 253° |
| 2026-04-29 21:54 | -12.60474 | 130.94645 | 7409 ft | 276 kts | 258° |
| 2026-04-29 21:54 | -12.60886 | 130.92718 | 8191 ft | 279 kts | 258° |
| 2026-04-29 21:54 | -12.61304 | 130.90769 | 8944 ft | 282 kts | 258° |
| 2026-04-29 21:54 | -12.61724 | 130.88798 | 9677 ft | 285 kts | 258° |
| 2026-04-29 21:55 | -12.62148 | 130.86802 | 10316 ft | 293 kts | 258° |
| 2026-04-29 21:55 | -12.62597 | 130.84685 | 10512 ft | 316 kts | 258° |
| 2026-04-29 21:55 | -12.62921 | 130.82382 | 10670 ft | 338 kts | 264° |
| 2026-04-29 21:55 | -12.63152 | 130.79947 | 11111 ft | 348 kts | 264° |
| 2026-04-29 21:56 | -12.63385 | 130.77465 | 11729 ft | 352 kts | 264° |
| 2026-04-29 21:56 | -12.63621 | 130.74955 | 12358 ft | 356 kts | 264° |
| 2026-04-29 21:56 | -12.63862 | 130.72423 | 12980 ft | 359 kts | 264° |
| 2026-04-29 21:56 | -12.64109 | 130.69865 | 13598 ft | 362 kts | 264° |
| 2026-04-29 21:57 | -12.64359 | 130.67288 | 14196 ft | 366 kts | 264° |
| 2026-04-29 21:57 | -12.64615 | 130.64685 | 14785 ft | 369 kts | 263° |
| 2026-04-29 21:57 | -12.65137 | 130.62106 | 15337 ft | 372 kts | 252° |
| 2026-04-29 21:57 | -12.66102 | 130.59754 | 15860 ft | 375 kts | 241° |
| 2026-04-29 21:58 | -12.67554 | 130.57524 | 16394 ft | 378 kts | 232° |
| 2026-04-29 21:58 | -12.68970 | 130.55678 | 16851 ft | 381 kts | 232° |
| 2026-04-29 21:58 | -12.69194 | 130.55385 | 16919 ft | 381 kts | 232° |
| 2026-04-29 21:58 | -12.70290 | 130.53950 | 17266 ft | 383 kts | 232° |
| 2026-04-29 21:59 | -12.71763 | 130.52012 | 17724 ft | 385 kts | 232° |
| 2026-04-29 21:59 | -12.73416 | 130.49837 | 18212 ft | 388 kts | 232° |
| 2026-04-29 21:59 | -12.75081 | 130.47647 | 18680 ft | 391 kts | 232° |
| 2026-04-29 21:59 | -12.76759 | 130.45440 | 19146 ft | 394 kts | 232° |
| 2026-04-29 22:00 | -12.78446 | 130.43219 | 19593 ft | 397 kts | 232° |
| 2026-04-29 22:00 | -12.80146 | 130.40982 | 20054 ft | 399 kts | 232° |
| 2026-04-29 22:00 | -12.81859 | 130.38728 | 20493 ft | 402 kts | 232° |
| 2026-04-29 22:00 | -12.83580 | 130.36465 | 20913 ft | 404 kts | 232° |
| 2026-04-29 22:01 | -12.85315 | 130.34185 | 21326 ft | 407 kts | 232° |
| 2026-04-29 22:01 | -12.87060 | 130.31890 | 21733 ft | 409 kts | 232° |
| 2026-04-29 22:01 | -12.88814 | 130.29580 | 22121 ft | 412 kts | 232° |
| 2026-04-29 22:01 | -12.90576 | 130.27254 | 22511 ft | 414 kts | 232° |
| 2026-04-29 22:02 | -12.92346 | 130.24916 | 22888 ft | 417 kts | 232° |
| 2026-04-29 22:02 | -12.94128 | 130.22560 | 23249 ft | 419 kts | 232° |
| 2026-04-29 22:02 | -12.95919 | 130.20197 | 23617 ft | 421 kts | 232° |
| 2026-04-29 22:02 | -12.97723 | 130.17818 | 23969 ft | 424 kts | 232° |
| 2026-04-29 22:03 | -12.99535 | 130.15426 | 24300 ft | 426 kts | 232° |
| 2026-04-29 22:03 | -13.01357 | 130.13022 | 24635 ft | 428 kts | 232° |
| 2026-04-29 22:03 | -13.03187 | 130.10606 | 24970 ft | 430 kts | 232° |
| 2026-04-29 22:03 | -13.05024 | 130.08181 | 25292 ft | 432 kts | 232° |
| 2026-04-29 22:04 | -13.06872 | 130.05741 | 25601 ft | 434 kts | 232° |
| 2026-04-29 22:04 | -13.08728 | 130.03290 | 25914 ft | 436 kts | 232° |
| 2026-04-29 22:04 | -13.10594 | 130.00827 | 26216 ft | 438 kts | 232° |
| 2026-04-29 22:04 | -13.11833 | 129.99190 | 26412 ft | 440 kts | 232° |
| 2026-04-29 22:05 | -13.13712 | 129.96707 | 26709 ft | 442 kts | 232° |
| 2026-04-29 22:05 | -13.15599 | 129.94211 | 26997 ft | 443 kts | 232° |
| 2026-04-29 22:05 | -13.19397 | 129.89189 | 27551 ft | 447 kts | 232° |
| 2026-04-29 22:06 | -13.21303 | 129.86663 | 27813 ft | 449 kts | 232° |
| 2026-04-29 22:06 | -13.23217 | 129.84124 | 28069 ft | 451 kts | 232° |
| 2026-04-29 22:06 | -13.25765 | 129.80745 | 28395 ft | 453 kts | 232° |
| 2026-04-29 22:06 | -13.27070 | 129.79018 | 28557 ft | 454 kts | 232° |
| 2026-04-29 22:07 | -13.29010 | 129.76452 | 28796 ft | 456 kts | 232° |
| 2026-04-29 22:07 | -13.30955 | 129.73879 | 29022 ft | 457 kts | 232° |
| 2026-04-29 22:07 | -13.32908 | 129.71294 | 29250 ft | 459 kts | 232° |
| 2026-04-29 22:07 | -13.34867 | 129.68698 | 29467 ft | 461 kts | 232° |
| 2026-04-29 22:08 | -13.36826 | 129.66096 | 29729 ft | 461 kts | 232° |
| 2026-04-29 22:08 | -13.38781 | 129.63489 | 30051 ft | 460 kts | 232° |
| 2026-04-29 22:08 | -13.40731 | 129.60888 | 30353 ft | 459 kts | 232° |
| 2026-04-29 22:08 | -13.42655 | 129.58328 | 30647 ft | 459 kts | 232° |
| 2026-04-29 22:09 | -13.44629 | 129.55706 | 30944 ft | 458 kts | 232° |
| 2026-04-29 22:09 | -13.46579 | 129.53122 | 31238 ft | 457 kts | 232° |
| 2026-04-29 22:09 | -13.48499 | 129.50575 | 31528 ft | 457 kts | 232° |
| 2026-04-29 22:09 | -13.50442 | 129.47999 | 31810 ft | 456 kts | 232° |
| 2026-04-29 22:10 | -13.52380 | 129.45422 | 32092 ft | 455 kts | 232° |
| 2026-04-29 22:10 | -13.54314 | 129.42850 | 32355 ft | 455 kts | 232° |
| 2026-04-29 22:10 | -13.56245 | 129.40278 | 32630 ft | 454 kts | 232° |
| 2026-04-29 22:10 | -13.58173 | 129.37705 | 32900 ft | 454 kts | 232° |
| 2026-04-29 22:11 | -13.60099 | 129.35139 | 33165 ft | 453 kts | 232° |
| 2026-04-29 22:11 | -13.62027 | 129.32574 | 33407 ft | 453 kts | 232° |
| 2026-04-29 22:11 | -13.63951 | 129.30012 | 33670 ft | 452 kts | 232° |
| 2026-04-29 22:11 | -13.65867 | 129.27453 | 33927 ft | 452 kts | 232° |
| 2026-04-29 22:12 | -13.67782 | 129.24897 | 34180 ft | 451 kts | 232° |
| 2026-04-29 22:12 | -13.69697 | 129.22341 | 34430 ft | 451 kts | 232° |
| 2026-04-29 22:12 | -13.71608 | 129.19791 | 34679 ft | 450 kts | 232° |
| 2026-04-29 22:12 | -13.73521 | 129.17243 | 34913 ft | 450 kts | 232° |
| 2026-04-29 22:13 | -13.75432 | 129.14699 | 35134 ft | 449 kts | 232° |
| 2026-04-29 22:13 | -13.77337 | 129.12156 | 35352 ft | 449 kts | 232° |
| 2026-04-29 22:13 | -13.79237 | 129.09611 | 35565 ft | 448 kts | 232° |
| 2026-04-29 22:13 | -13.81134 | 129.07071 | 35763 ft | 448 kts | 232° |
| 2026-04-29 22:14 | -13.83031 | 129.04532 | 35958 ft | 447 kts | 232° |
| 2026-04-29 22:14 | -13.84928 | 129.01994 | 36144 ft | 447 kts | 232° |
| 2026-04-29 22:14 | -13.86825 | 128.99460 | 36322 ft | 447 kts | 232° |
| 2026-04-29 22:14 | -13.88721 | 128.96926 | 36486 ft | 447 kts | 232° |
| 2026-04-29 22:15 | -13.90613 | 128.94389 | 36647 ft | 447 kts | 232° |
| 2026-04-29 22:15 | -13.92503 | 128.91854 | 36799 ft | 447 kts | 232° |
| 2026-04-29 22:15 | -13.94396 | 128.89317 | 36945 ft | 447 kts | 232° |
| 2026-04-29 22:15 | -13.96288 | 128.86781 | 37091 ft | 447 kts | 232° |
| 2026-04-29 22:16 | -13.98182 | 128.84245 | 37222 ft | 447 kts | 232° |
| 2026-04-29 22:16 | -14.00074 | 128.81710 | 37368 ft | 447 kts | 232° |
| 2026-04-29 22:16 | -14.01968 | 128.79171 | 37495 ft | 447 kts | 232° |
| 2026-04-29 22:16 | -14.03858 | 128.76634 | 37630 ft | 447 kts | 232° |
| 2026-04-29 22:17 | -14.05750 | 128.74096 | 37763 ft | 447 kts | 232° |
| 2026-04-29 22:17 | -14.07642 | 128.71562 | 37917 ft | 446 kts | 232° |
| 2026-04-29 22:17 | -14.09506 | 128.69061 | 38001 ft | 447 kts | 232° |
| 2026-04-29 22:18 | -14.13288 | 128.63974 | 38009 ft | 447 kts | 232° |
| 2026-04-29 22:18 | -14.17071 | 128.58890 | 38009 ft | 447 kts | 232° |
| 2026-04-29 22:19 | -14.20859 | 128.53803 | 38009 ft | 447 kts | 232° |
| 2026-04-29 22:19 | -14.24646 | 128.48716 | 38009 ft | 447 kts | 232° |
| 2026-04-29 22:20 | -14.28438 | 128.43629 | 38012 ft | 448 kts | 232° |
| 2026-04-29 22:20 | -14.32226 | 128.38534 | 38016 ft | 448 kts | 233° |
| 2026-04-29 22:21 | -14.36010 | 128.33430 | 38018 ft | 448 kts | 233° |
| 2026-04-29 22:21 | -14.39795 | 128.28322 | 38021 ft | 448 kts | 233° |
| 2026-04-29 22:22 | -14.43581 | 128.23214 | 38022 ft | 448 kts | 233° |
| 2026-04-29 22:22 | -14.47362 | 128.18100 | 38024 ft | 448 kts | 233° |
| 2026-04-29 22:23 | -14.51149 | 128.12983 | 38027 ft | 448 kts | 233° |
| 2026-04-29 22:23 | -14.54936 | 128.07870 | 38024 ft | 448 kts | 232° |
| 2026-04-29 22:24 | -14.58725 | 128.02762 | 38025 ft | 448 kts | 233° |
| 2026-04-29 22:24 | -14.62501 | 127.97644 | 38025 ft | 448 kts | 233° |
| 2026-04-29 22:25 | -14.66281 | 127.92522 | 38023 ft | 448 kts | 233° |
| 2026-04-29 22:25 | -14.70064 | 127.87402 | 38022 ft | 448 kts | 233° |
| 2026-04-29 22:26 | -14.73843 | 127.82280 | 38016 ft | 448 kts | 233° |
| 2026-04-29 22:26 | -14.77619 | 127.77153 | 38017 ft | 448 kts | 233° |
| 2026-04-29 22:27 | -14.81398 | 127.72024 | 38017 ft | 449 kts | 233° |
| 2026-04-29 22:27 | -14.85178 | 127.66890 | 38016 ft | 449 kts | 233° |
| 2026-04-29 22:28 | -14.88955 | 127.61750 | 38018 ft | 449 kts | 233° |
| 2026-04-29 22:28 | -14.92735 | 127.56606 | 38019 ft | 449 kts | 233° |
| 2026-04-29 22:29 | -14.96490 | 127.51494 | 38020 ft | 449 kts | 233° |
| 2026-04-29 22:29 | -15.00269 | 127.46348 | 38021 ft | 449 kts | 233° |
| 2026-04-29 22:30 | -15.04043 | 127.41194 | 38020 ft | 449 kts | 233° |
| 2026-04-29 22:30 | -15.07821 | 127.36038 | 38018 ft | 450 kts | 233° |
| 2026-04-29 22:31 | -15.11608 | 127.30883 | 38019 ft | 450 kts | 233° |
| 2026-04-29 22:31 | -15.15387 | 127.25723 | 38023 ft | 450 kts | 233° |
| 2026-04-29 22:32 | -15.19168 | 127.20557 | 38021 ft | 450 kts | 233° |
| 2026-04-29 22:32 | -15.22944 | 127.15382 | 38019 ft | 450 kts | 233° |
| 2026-04-29 22:33 | -15.26721 | 127.10206 | 38019 ft | 451 kts | 233° |
| 2026-04-29 22:33 | -15.30500 | 127.05029 | 38022 ft | 451 kts | 233° |
| 2026-04-29 22:34 | -15.34281 | 126.99855 | 38022 ft | 450 kts | 233° |
| 2026-04-29 22:34 | -15.38052 | 126.94671 | 38025 ft | 450 kts | 233° |
| 2026-04-29 22:35 | -15.41824 | 126.89489 | 38022 ft | 450 kts | 233° |
| 2026-04-29 22:35 | -15.45599 | 126.84310 | 38022 ft | 450 kts | 233° |
| 2026-04-29 22:36 | -15.49375 | 126.79130 | 38023 ft | 450 kts | 233° |
| 2026-04-29 22:36 | -15.53149 | 126.73952 | 38021 ft | 450 kts | 233° |
| 2026-04-29 22:37 | -15.56887 | 126.68795 | 38023 ft | 450 kts | 233° |
| 2026-04-29 22:37 | -15.60645 | 126.63605 | 38025 ft | 450 kts | 233° |
| 2026-04-29 22:38 | -15.64412 | 126.58426 | 38026 ft | 449 kts | 233° |
| 2026-04-29 22:38 | -15.68174 | 126.53245 | 38022 ft | 449 kts | 233° |
| 2026-04-29 22:39 | -15.71926 | 126.48058 | 38021 ft | 449 kts | 233° |
| 2026-04-29 22:39 | -15.75678 | 126.42878 | 38020 ft | 449 kts | 233° |
| 2026-04-29 22:40 | -15.79425 | 126.37689 | 38019 ft | 449 kts | 233° |
| 2026-04-29 22:40 | -15.83171 | 126.32503 | 38018 ft | 449 kts | 233° |
| 2026-04-29 22:41 | -15.86926 | 126.27320 | 38016 ft | 449 kts | 233° |
| 2026-04-29 22:41 | -15.90671 | 126.22131 | 38018 ft | 449 kts | 233° |
| 2026-04-29 22:42 | -15.94412 | 126.16934 | 38015 ft | 449 kts | 233° |
| 2026-04-29 22:42 | -15.98159 | 126.11744 | 38014 ft | 449 kts | 233° |
| 2026-04-29 22:43 | -16.01907 | 126.06552 | 38012 ft | 449 kts | 233° |
| 2026-04-29 22:43 | -16.05647 | 126.01354 | 38011 ft | 449 kts | 233° |
| 2026-04-29 22:44 | -16.09385 | 125.96151 | 38009 ft | 449 kts | 233° |
| 2026-04-29 22:44 | -16.13128 | 125.90946 | 38007 ft | 449 kts | 233° |
| 2026-04-29 22:45 | -16.16872 | 125.85742 | 38003 ft | 450 kts | 233° |
| 2026-04-29 22:45 | -16.20618 | 125.80529 | 38002 ft | 450 kts | 233° |
| 2026-04-29 22:46 | -16.24357 | 125.75305 | 38004 ft | 450 kts | 233° |
| 2026-04-29 22:46 | -16.28104 | 125.70079 | 38008 ft | 450 kts | 233° |
| 2026-04-29 22:47 | -16.31848 | 125.64854 | 38013 ft | 450 kts | 233° |
| 2026-04-29 22:47 | -16.35586 | 125.59623 | 38016 ft | 450 kts | 233° |
| 2026-04-29 22:48 | -16.39325 | 125.54397 | 38016 ft | 450 kts | 233° |
| 2026-04-29 22:48 | -16.43068 | 125.49172 | 38013 ft | 450 kts | 233° |
| 2026-04-29 22:49 | -16.46804 | 125.43938 | 38013 ft | 450 kts | 233° |
| 2026-04-29 22:49 | -16.50545 | 125.38701 | 38012 ft | 450 kts | 233° |
| 2026-04-29 22:50 | -16.54261 | 125.33499 | 38013 ft | 451 kts | 233° |
| 2026-04-29 22:50 | -16.57996 | 125.28252 | 38014 ft | 451 kts | 233° |
| 2026-04-29 22:51 | -16.61726 | 125.23001 | 38016 ft | 451 kts | 233° |
| 2026-04-29 22:51 | -16.67331 | 125.15130 | 38020 ft | 451 kts | 233° |
| 2026-04-29 22:52 | -16.71071 | 125.09880 | 38020 ft | 451 kts | 233° |
| 2026-04-29 22:52 | -16.74177 | 125.05519 | 38022 ft | 450 kts | 233° |
| 2026-04-29 22:53 | -16.77902 | 125.00268 | 38024 ft | 450 kts | 233° |
| 2026-04-29 22:53 | -16.81621 | 124.95017 | 38022 ft | 450 kts | 233° |
| 2026-04-29 22:54 | -16.85344 | 124.89760 | 38025 ft | 450 kts | 233° |
| 2026-04-29 22:54 | -16.89070 | 124.84516 | 38025 ft | 450 kts | 233° |
| 2026-04-29 22:55 | -16.92786 | 124.79257 | 38023 ft | 450 kts | 234° |
| 2026-04-29 22:55 | -16.96496 | 124.73995 | 38026 ft | 450 kts | 233° |
| 2026-04-29 22:56 | -17.00220 | 124.68742 | 38025 ft | 450 kts | 233° |
| 2026-04-29 22:56 | -17.03939 | 124.63486 | 38026 ft | 450 kts | 234° |
| 2026-04-29 22:57 | -17.07643 | 124.58221 | 38026 ft | 449 kts | 234° |
| 2026-04-29 22:57 | -17.11346 | 124.52961 | 38025 ft | 449 kts | 233° |
| 2026-04-29 22:58 | -17.15059 | 124.47704 | 38028 ft | 449 kts | 233° |
| 2026-04-29 22:58 | -17.18770 | 124.42451 | 38026 ft | 449 kts | 233° |
| 2026-04-29 22:59 | -17.22472 | 124.37185 | 38024 ft | 449 kts | 234° |
| 2026-04-29 22:59 | -17.26161 | 124.31915 | 38025 ft | 449 kts | 234° |
| 2026-04-29 23:00 | -17.29854 | 124.26647 | 38025 ft | 449 kts | 234° |
| 2026-04-29 23:00 | -17.33557 | 124.21385 | 38028 ft | 449 kts | 233° |
| 2026-04-29 23:01 | -17.37259 | 124.16120 | 38025 ft | 449 kts | 234° |
| 2026-04-29 23:01 | -17.40950 | 124.10848 | 38025 ft | 449 kts | 234° |
| 2026-04-29 23:02 | -17.44642 | 124.05573 | 38026 ft | 449 kts | 234° |
| 2026-04-29 23:02 | -17.48332 | 124.00297 | 38025 ft | 449 kts | 234° |
| 2026-04-29 23:03 | -17.52022 | 123.95017 | 38025 ft | 449 kts | 234° |
| 2026-04-29 23:03 | -17.55714 | 123.89733 | 38028 ft | 449 kts | 234° |
| 2026-04-29 23:04 | -17.59810 | 123.84809 | 38026 ft | 449 kts | 220° |
| 2026-04-29 23:04 | -17.64977 | 123.81134 | 38025 ft | 449 kts | 212° |
| 2026-04-29 23:05 | -17.70265 | 123.77636 | 38024 ft | 450 kts | 212° |
| 2026-04-29 23:05 | -17.75550 | 123.74124 | 38025 ft | 450 kts | 212° |
| 2026-04-29 23:06 | -17.80793 | 123.70623 | 38026 ft | 450 kts | 213° |
| 2026-04-29 23:06 | -17.86075 | 123.67095 | 38027 ft | 450 kts | 212° |
| 2026-04-29 23:07 | -17.91357 | 123.63570 | 38027 ft | 450 kts | 212° |
| 2026-04-29 23:07 | -17.96638 | 123.60047 | 38027 ft | 450 kts | 212° |
| 2026-04-29 23:08 | -18.01914 | 123.56513 | 38026 ft | 450 kts | 213° |
| 2026-04-29 23:08 | -18.07192 | 123.52980 | 38026 ft | 450 kts | 212° |
| 2026-04-29 23:09 | -18.12470 | 123.49451 | 38025 ft | 450 kts | 213° |
| 2026-04-29 23:09 | -18.17750 | 123.45917 | 38025 ft | 450 kts | 213° |
| 2026-04-29 23:10 | -18.23024 | 123.42377 | 38025 ft | 450 kts | 213° |
| 2026-04-29 23:10 | -18.28299 | 123.38838 | 38024 ft | 450 kts | 213° |
| 2026-04-29 23:11 | -18.33575 | 123.35295 | 38023 ft | 450 kts | 213° |
| 2026-04-29 23:11 | -18.38851 | 123.31748 | 38024 ft | 450 kts | 213° |
| 2026-04-29 23:12 | -18.44126 | 123.28202 | 38023 ft | 450 kts | 213° |
| 2026-04-29 23:12 | -18.49405 | 123.24661 | 38022 ft | 450 kts | 213° |
| 2026-04-29 23:13 | -18.54680 | 123.21110 | 38020 ft | 450 kts | 213° |
| 2026-04-29 23:13 | -18.59952 | 123.17550 | 38020 ft | 450 kts | 213° |
| 2026-04-29 23:14 | -18.65228 | 123.13987 | 38020 ft | 450 kts | 213° |
| 2026-04-29 23:14 | -18.70504 | 123.10423 | 38021 ft | 450 kts | 213° |
| 2026-04-29 23:15 | -18.75783 | 123.06859 | 38022 ft | 450 kts | 213° |
| 2026-04-29 23:15 | -18.81063 | 123.03301 | 38021 ft | 450 kts | 213° |
| 2026-04-29 23:16 | -18.86335 | 122.99737 | 38020 ft | 450 kts | 213° |
| 2026-04-29 23:16 | -18.91603 | 122.96163 | 38020 ft | 450 kts | 213° |
| 2026-04-29 23:17 | -18.96871 | 122.92589 | 38022 ft | 450 kts | 213° |
| 2026-04-29 23:17 | -19.02146 | 122.89025 | 38021 ft | 450 kts | 213° |
| 2026-04-29 23:18 | -19.07383 | 122.85478 | 38021 ft | 450 kts | 213° |
| 2026-04-29 23:18 | -19.12650 | 122.81900 | 38021 ft | 450 kts | 213° |
| 2026-04-29 23:19 | -19.17919 | 122.78317 | 38022 ft | 450 kts | 213° |
| 2026-04-29 23:19 | -19.23185 | 122.74737 | 38022 ft | 450 kts | 213° |
| 2026-04-29 23:20 | -19.28449 | 122.71152 | 38022 ft | 450 kts | 213° |
| 2026-04-29 23:20 | -19.33712 | 122.67563 | 38024 ft | 450 kts | 213° |
| 2026-04-29 23:21 | -19.38976 | 122.63975 | 38025 ft | 450 kts | 213° |
| 2026-04-29 23:21 | -19.44235 | 122.60384 | 38024 ft | 450 kts | 213° |
| 2026-04-29 23:22 | -19.49495 | 122.56799 | 38023 ft | 449 kts | 213° |
| 2026-04-29 23:22 | -19.54748 | 122.53216 | 38023 ft | 449 kts | 213° |
| 2026-04-29 23:23 | -19.59998 | 122.49628 | 38018 ft | 449 kts | 213° |
| 2026-04-29 23:23 | -19.65245 | 122.46038 | 38016 ft | 449 kts | 213° |
| 2026-04-29 23:24 | -19.70493 | 122.42439 | 38020 ft | 449 kts | 213° |
| 2026-04-29 23:24 | -19.75737 | 122.38832 | 38018 ft | 449 kts | 213° |
| 2026-04-29 23:25 | -19.80987 | 122.35233 | 38020 ft | 449 kts | 213° |
| 2026-04-29 23:25 | -19.86246 | 122.31638 | 38021 ft | 449 kts | 213° |
| 2026-04-29 23:26 | -19.91494 | 122.28029 | 38023 ft | 449 kts | 213° |
| 2026-04-29 23:26 | -19.96748 | 122.24423 | 38023 ft | 450 kts | 213° |
| 2026-04-29 23:27 | -20.01997 | 122.20806 | 38025 ft | 450 kts | 213° |
| 2026-04-29 23:27 | -20.07255 | 122.17188 | 38026 ft | 450 kts | 213° |
| 2026-04-29 23:28 | -20.12511 | 122.13567 | 38026 ft | 450 kts | 213° |
| 2026-04-29 23:28 | -20.17766 | 122.09941 | 38028 ft | 450 kts | 213° |
| 2026-04-29 23:29 | -20.23017 | 122.06310 | 38025 ft | 450 kts | 213° |
| 2026-04-29 23:29 | -20.28232 | 122.02708 | 38024 ft | 450 kts | 213° |
| 2026-04-29 23:30 | -20.33487 | 121.99082 | 38023 ft | 450 kts | 213° |
| 2026-04-29 23:30 | -20.38744 | 121.95456 | 38023 ft | 450 kts | 213° |
| 2026-04-29 23:31 | -20.43997 | 121.91817 | 38024 ft | 450 kts | 213° |
| 2026-04-29 23:31 | -20.49251 | 121.88182 | 38025 ft | 450 kts | 213° |
| 2026-04-29 23:32 | -20.54505 | 121.84546 | 38024 ft | 450 kts | 213° |
| 2026-04-29 23:32 | -20.59759 | 121.80902 | 38024 ft | 450 kts | 213° |
| 2026-04-29 23:33 | -20.65007 | 121.77251 | 38026 ft | 450 kts | 213° |
| 2026-04-29 23:33 | -20.70265 | 121.73601 | 38025 ft | 451 kts | 213° |
| 2026-04-29 23:34 | -20.75522 | 121.69950 | 38025 ft | 451 kts | 213° |
| 2026-04-29 23:34 | -20.80779 | 121.66291 | 38026 ft | 451 kts | 213° |
| 2026-04-29 23:35 | -20.86032 | 121.62628 | 38027 ft | 451 kts | 213° |
| 2026-04-29 23:35 | -20.91289 | 121.58958 | 38019 ft | 452 kts | 213° |
| 2026-04-29 23:36 | -20.96563 | 121.55278 | 38010 ft | 453 kts | 213° |
| 2026-04-29 23:36 | -21.00956 | 121.52217 | 38011 ft | 454 kts | 213° |
| 2026-04-29 23:37 | -21.06255 | 121.48518 | 38016 ft | 455 kts | 213° |
| 2026-04-29 23:37 | -21.11552 | 121.44808 | 38023 ft | 455 kts | 213° |
| 2026-04-29 23:38 | -21.16857 | 121.41091 | 38026 ft | 456 kts | 213° |
| 2026-04-29 23:38 | -21.22164 | 121.37377 | 38028 ft | 456 kts | 213° |
| 2026-04-29 23:39 | -21.27477 | 121.33661 | 38029 ft | 456 kts | 213° |
| 2026-04-29 23:39 | -21.32785 | 121.29936 | 38029 ft | 456 kts | 213° |
| 2026-04-29 23:40 | -21.38093 | 121.26199 | 38029 ft | 456 kts | 213° |
| 2026-04-29 23:40 | -21.43409 | 121.22467 | 38033 ft | 457 kts | 213° |
| 2026-04-29 23:41 | -21.48726 | 121.18731 | 38036 ft | 457 kts | 213° |
| 2026-04-29 23:41 | -21.54040 | 121.14994 | 38031 ft | 456 kts | 213° |
| 2026-04-29 23:42 | -21.59345 | 121.11248 | 38032 ft | 456 kts | 213° |
| 2026-04-29 23:42 | -21.64653 | 121.07506 | 38031 ft | 456 kts | 213° |
| 2026-04-29 23:43 | -21.69959 | 121.03755 | 38031 ft | 456 kts | 213° |
| 2026-04-29 23:43 | -21.75225 | 121.00027 | 38030 ft | 456 kts | 213° |
| 2026-04-29 23:44 | -21.80531 | 120.96275 | 38031 ft | 456 kts | 213° |
| 2026-04-29 23:44 | -21.85835 | 120.92517 | 38029 ft | 456 kts | 213° |
| 2026-04-29 23:45 | -21.91147 | 120.88765 | 38029 ft | 456 kts | 213° |
| 2026-04-29 23:45 | -21.96452 | 120.85009 | 38029 ft | 456 kts | 213° |
| 2026-04-29 23:46 | -22.01752 | 120.81241 | 38031 ft | 456 kts | 213° |
| 2026-04-29 23:46 | -22.07053 | 120.77472 | 38029 ft | 456 kts | 213° |
| 2026-04-29 23:47 | -22.12354 | 120.73704 | 38028 ft | 456 kts | 213° |
| 2026-04-29 23:47 | -22.17651 | 120.69929 | 38028 ft | 456 kts | 213° |
| 2026-04-29 23:48 | -22.22948 | 120.66153 | 38028 ft | 456 kts | 213° |
| 2026-04-29 23:48 | -22.28244 | 120.62377 | 38026 ft | 456 kts | 213° |
| 2026-04-29 23:49 | -22.33539 | 120.58596 | 38026 ft | 456 kts | 213° |
| 2026-04-29 23:49 | -22.38841 | 120.54818 | 38025 ft | 456 kts | 213° |
| 2026-04-29 23:50 | -22.44130 | 120.51021 | 38024 ft | 456 kts | 214° |
| 2026-04-29 23:51 | -22.52067 | 120.45334 | 38023 ft | 456 kts | 213° |
| 2026-04-29 23:51 | -22.57367 | 120.41543 | 38023 ft | 457 kts | 213° |
| 2026-04-29 23:52 | -22.62663 | 120.37751 | 38024 ft | 457 kts | 213° |
| 2026-04-29 23:52 | -22.67955 | 120.33950 | 38025 ft | 456 kts | 214° |
| 2026-04-29 23:53 | -22.73246 | 120.30146 | 38025 ft | 456 kts | 214° |
| 2026-04-29 23:53 | -22.78533 | 120.26338 | 38026 ft | 456 kts | 214° |
| 2026-04-29 23:54 | -22.83816 | 120.22529 | 38024 ft | 456 kts | 214° |
| 2026-04-29 23:54 | -22.89103 | 120.18717 | 38025 ft | 456 kts | 214° |
| 2026-04-29 23:55 | -22.94388 | 120.14907 | 38025 ft | 456 kts | 214° |
| 2026-04-29 23:55 | -22.99638 | 120.11122 | 38023 ft | 456 kts | 214° |
| 2026-04-29 23:56 | -23.04921 | 120.07306 | 38023 ft | 456 kts | 214° |
| 2026-04-29 23:56 | -23.10201 | 120.03485 | 38023 ft | 456 kts | 214° |
| 2026-04-29 23:57 | -23.15487 | 119.99656 | 38023 ft | 456 kts | 214° |
| 2026-04-29 23:57 | -23.20764 | 119.95827 | 38024 ft | 456 kts | 214° |
| 2026-04-29 23:58 | -23.26050 | 119.91992 | 38025 ft | 457 kts | 214° |
| 2026-04-29 23:58 | -23.31334 | 119.88154 | 38023 ft | 457 kts | 214° |
| 2026-04-29 23:59 | -23.36612 | 119.84311 | 38023 ft | 457 kts | 214° |
| 2026-04-29 23:59 | -23.41947 | 119.80551 | 38026 ft | 457 kts | 207° |
| 2026-04-30 00:00 | -23.47821 | 119.77924 | 38022 ft | 457 kts | 201° |
| 2026-04-30 00:00 | -23.53763 | 119.75456 | 38023 ft | 457 kts | 201° |
| 2026-04-30 00:01 | -23.59699 | 119.72974 | 38021 ft | 457 kts | 201° |
| 2026-04-30 00:01 | -23.65644 | 119.70493 | 38022 ft | 457 kts | 201° |
| 2026-04-30 00:02 | -23.71587 | 119.68008 | 38024 ft | 458 kts | 201° |
| 2026-04-30 00:02 | -23.77532 | 119.65519 | 38023 ft | 458 kts | 201° |
| 2026-04-30 00:03 | -23.83479 | 119.63028 | 38025 ft | 458 kts | 201° |
| 2026-04-30 00:03 | -23.89427 | 119.60534 | 38026 ft | 458 kts | 201° |
| 2026-04-30 00:04 | -23.95374 | 119.58039 | 38026 ft | 458 kts | 201° |
| 2026-04-30 00:04 | -24.01322 | 119.55543 | 38026 ft | 458 kts | 201° |
| 2026-04-30 00:05 | -24.07266 | 119.53037 | 38026 ft | 458 kts | 201° |
| 2026-04-30 00:05 | -24.13208 | 119.50526 | 38029 ft | 458 kts | 201° |
| 2026-04-30 00:06 | -24.19114 | 119.48036 | 38028 ft | 458 kts | 201° |
| 2026-04-30 00:06 | -24.25062 | 119.45529 | 38026 ft | 458 kts | 201° |
| 2026-04-30 00:07 | -24.31008 | 119.43020 | 38026 ft | 458 kts | 201° |
| 2026-04-30 00:07 | -24.36970 | 119.40545 | 38026 ft | 458 kts | 201° |
| 2026-04-30 00:08 | -24.42921 | 119.38038 | 38025 ft | 458 kts | 201° |
| 2026-04-30 00:08 | -24.48838 | 119.35480 | 38026 ft | 455 kts | 201° |
| 2026-04-30 00:09 | -24.54719 | 119.32955 | 38025 ft | 453 kts | 201° |
| 2026-04-30 00:09 | -24.60605 | 119.30464 | 38009 ft | 453 kts | 201° |
| 2026-04-30 00:10 | -24.66487 | 119.27975 | 38009 ft | 453 kts | 201° |
| 2026-04-30 00:10 | -24.72357 | 119.25483 | 38009 ft | 452 kts | 201° |
| 2026-04-30 00:11 | -24.78219 | 119.22959 | 38009 ft | 453 kts | 201° |
| 2026-04-30 00:11 | -24.84099 | 119.20457 | 38012 ft | 453 kts | 201° |
| 2026-04-30 00:12 | -24.89984 | 119.17964 | 38021 ft | 453 kts | 201° |
| 2026-04-30 00:12 | -24.95860 | 119.15442 | 38026 ft | 453 kts | 204° |
| 2026-04-30 00:12 | -24.98538 | 119.13653 | 38032 ft | 451 kts | 220° |
| 2026-04-30 00:13 | -25.00974 | 119.11479 | 38021 ft | 451 kts | 213° |
| 2026-04-30 00:13 | -25.03740 | 119.09866 | 38019 ft | 451 kts | 201° |
| 2026-04-30 00:13 | -25.06666 | 119.08614 | 38012 ft | 451 kts | 201° |
| 2026-04-30 00:14 | -25.12498 | 119.06164 | 38012 ft | 452 kts | 201° |
| 2026-04-30 00:14 | -25.18395 | 119.03730 | 38021 ft | 452 kts | 200° |
| 2026-04-30 00:15 | -25.24290 | 119.01300 | 38026 ft | 452 kts | 200° |
| 2026-04-30 00:15 | -25.30183 | 118.98861 | 38028 ft | 452 kts | 201° |
| 2026-04-30 00:16 | -25.36073 | 118.96414 | 38029 ft | 452 kts | 201° |
| 2026-04-30 00:16 | -25.41965 | 118.93961 | 38029 ft | 452 kts | 201° |
| 2026-04-30 00:17 | -25.47856 | 118.91509 | 38030 ft | 452 kts | 201° |
| 2026-04-30 00:17 | -25.53752 | 118.89062 | 38030 ft | 453 kts | 201° |
| 2026-04-30 00:18 | -25.59647 | 118.86606 | 38032 ft | 453 kts | 201° |
| 2026-04-30 00:18 | -25.65535 | 118.84134 | 38029 ft | 452 kts | 201° |
| 2026-04-30 00:19 | -25.71421 | 118.81660 | 38029 ft | 452 kts | 201° |
| 2026-04-30 00:19 | -25.77308 | 118.79196 | 38027 ft | 452 kts | 201° |
| 2026-04-30 00:20 | -25.83194 | 118.76738 | 38028 ft | 452 kts | 201° |
| 2026-04-30 00:20 | -25.89084 | 118.74281 | 38035 ft | 452 kts | 201° |
| 2026-04-30 00:21 | -25.94974 | 118.71811 | 38034 ft | 452 kts | 201° |
| 2026-04-30 00:21 | -26.00817 | 118.69347 | 38033 ft | 452 kts | 201° |
| 2026-04-30 00:22 | -26.06703 | 118.66869 | 38032 ft | 452 kts | 201° |
| 2026-04-30 00:22 | -26.12586 | 118.64389 | 38030 ft | 452 kts | 201° |
| 2026-04-30 00:23 | -26.18472 | 118.61907 | 38030 ft | 452 kts | 201° |
| 2026-04-30 00:23 | -26.24367 | 118.59465 | 38029 ft | 452 kts | 200° |
| 2026-04-30 00:24 | -26.30268 | 118.57036 | 38029 ft | 452 kts | 200° |
| 2026-04-30 00:24 | -26.35172 | 118.55017 | 38029 ft | 452 kts | 200° |
| 2026-04-30 00:25 | -26.41077 | 118.52587 | 38032 ft | 452 kts | 200° |
| 2026-04-30 00:25 | -26.46978 | 118.50159 | 38029 ft | 452 kts | 200° |
| 2026-04-30 00:26 | -26.52880 | 118.47731 | 38029 ft | 452 kts | 200° |
| 2026-04-30 00:26 | -26.58785 | 118.45303 | 38029 ft | 452 kts | 200° |
| 2026-04-30 00:27 | -26.64687 | 118.42876 | 38029 ft | 451 kts | 200° |
| 2026-04-30 00:27 | -26.69373 | 118.40950 | 38033 ft | 451 kts | 200° |
| 2026-04-30 00:29 | -26.71829 | 118.39781 | 38026 ft | 450 kts | 211° |
| 2026-04-30 00:30 | -26.74312 | 118.37687 | 38023 ft | 448 kts | 226° |
| 2026-04-30 00:30 | -26.78549 | 118.32600 | 38029 ft | 448 kts | 214° |
| 2026-04-30 00:31 | -26.78983 | 118.32272 | 38028 ft | 448 kts | 211° |
| 2026-04-30 00:32 | -26.79738 | 118.31774 | 38029 ft | 448 kts | 208° |
| 2026-04-30 00:32 | -26.85470 | 118.29155 | 38028 ft | 450 kts | 203° |
| 2026-04-30 00:32 | -26.88181 | 118.27437 | 38027 ft | 449 kts | 215° |
| 2026-04-30 00:33 | -26.90852 | 118.25620 | 38026 ft | 450 kts | 204° |
| 2026-04-30 00:33 | -26.96567 | 118.22776 | 38024 ft | 450 kts | 206° |
| 2026-04-30 00:34 | -27.02182 | 118.19657 | 38025 ft | 450 kts | 206° |
| 2026-04-30 00:34 | -27.07796 | 118.16543 | 38006 ft | 450 kts | 206° |
| 2026-04-30 00:35 | -27.13480 | 118.13596 | 38009 ft | 450 kts | 198° |
| 2026-04-30 00:35 | -27.19404 | 118.11311 | 38009 ft | 450 kts | 199° |
| 2026-04-30 00:36 | -27.25317 | 118.08988 | 38009 ft | 450 kts | 199° |
| 2026-04-30 00:36 | -27.31230 | 118.06667 | 38010 ft | 450 kts | 199° |
| 2026-04-30 00:37 | -27.37144 | 118.04346 | 38014 ft | 450 kts | 199° |
| 2026-04-30 00:37 | -27.43065 | 118.02023 | 38017 ft | 451 kts | 199° |
| 2026-04-30 00:38 | -27.48788 | 117.99221 | 38017 ft | 449 kts | 215° |
| 2026-04-30 00:38 | -27.54367 | 117.96185 | 38012 ft | 449 kts | 195° |
| 2026-04-30 00:39 | -27.60418 | 117.94430 | 38009 ft | 449 kts | 194° |
| 2026-04-30 00:39 | -27.66488 | 117.92701 | 38011 ft | 450 kts | 194° |
| 2026-04-30 00:40 | -27.72562 | 117.90974 | 38014 ft | 450 kts | 194° |
| 2026-04-30 00:40 | -27.78641 | 117.89247 | 38017 ft | 451 kts | 194° |
| 2026-04-30 00:41 | -27.84724 | 117.87519 | 38019 ft | 451 kts | 194° |
| 2026-04-30 00:41 | -27.90807 | 117.85793 | 38020 ft | 451 kts | 194° |
| 2026-04-30 00:42 | -27.96599 | 117.83198 | 38016 ft | 449 kts | 217° |
| 2026-04-30 00:42 | -27.98853 | 117.80788 | 38011 ft | 447 kts | 231° |
| 2026-04-30 00:42 | -28.00873 | 117.78117 | 38005 ft | 447 kts | 222° |
| 2026-04-30 00:42 | -28.03400 | 117.76099 | 38001 ft | 446 kts | 205° |
| 2026-04-30 00:43 | -28.06275 | 117.74766 | 37995 ft | 447 kts | 199° |
| 2026-04-30 00:43 | -28.12190 | 117.72542 | 37994 ft | 449 kts | 198° |
| 2026-04-30 00:43 | -28.15034 | 117.71226 | 37989 ft | 448 kts | 211° |
| 2026-04-30 00:44 | -28.17476 | 117.69061 | 37994 ft | 446 kts | 226° |
| 2026-04-30 00:44 | -28.22215 | 117.64507 | 38151 ft | 448 kts | 211° |
| 2026-04-30 00:44 | -28.25008 | 117.62940 | 38257 ft | 448 kts | 199° |
| 2026-04-30 00:45 | -28.28012 | 117.61989 | 38396 ft | 449 kts | 194° |
| 2026-04-30 00:45 | -28.31033 | 117.61101 | 38553 ft | 448 kts | 195° |
| 2026-04-30 00:45 | -28.34034 | 117.60196 | 38726 ft | 441 kts | 195° |
| 2026-04-30 00:45 | -28.36939 | 117.59300 | 38877 ft | 424 kts | 195° |
| 2026-04-30 00:46 | -28.39715 | 117.58428 | 39016 ft | 405 kts | 196° |
| 2026-04-30 00:46 | -28.42372 | 117.57583 | 39130 ft | 388 kts | 196° |
| 2026-04-30 00:46 | -28.44913 | 117.56765 | 39185 ft | 372 kts | 197° |
| 2026-04-30 00:46 | -28.47328 | 117.55677 | 38353 ft | 383 kts | 207° |
| 2026-04-30 00:47 | -28.49827 | 117.54342 | 37470 ft | 412 kts | 205° |
| 2026-04-30 00:47 | -28.55093 | 117.51591 | 37315 ft | 427 kts | 200° |
| 2026-04-30 00:47 | -28.57819 | 117.50678 | 38609 ft | 387 kts | 193° |
| 2026-04-30 00:48 | -28.60504 | 117.49983 | 38187 ft | 409 kts | 193° |
| 2026-04-30 00:48 | -28.63357 | 117.49199 | 37233 ft | 432 kts | 196° |
| 2026-04-30 00:48 | -28.66246 | 117.48170 | 36989 ft | 437 kts | 200° |
| 2026-04-30 00:49 | -28.71973 | 117.45610 | 36982 ft | 446 kts | 203° |
| 2026-04-30 00:49 | -28.77191 | 117.43120 | 36986 ft | 448 kts | 202° |
| 2026-04-30 00:55 | -28.77643 | 117.42909 | 36986 ft | 449 kts | 202° |
| 2026-04-30 00:55 | -28.86367 | 117.39037 | 37130 ft | 447 kts | 201° |
| 2026-04-30 00:56 | -28.89277 | 117.37788 | 37387 ft | 446 kts | 201° |
| 2026-04-30 00:56 | -28.92176 | 117.36540 | 37627 ft | 445 kts | 201° |
| 2026-04-30 00:56 | -28.95062 | 117.35290 | 37866 ft | 443 kts | 201° |
| 2026-04-30 00:56 | -28.97947 | 117.34030 | 37987 ft | 445 kts | 201° |
| 2026-04-30 00:57 | -29.03765 | 117.31479 | 38009 ft | 450 kts | 201° |
| 2026-04-30 00:57 | -29.09614 | 117.28915 | 38009 ft | 451 kts | 201° |
| 2026-04-30 00:58 | -29.15467 | 117.26337 | 38009 ft | 451 kts | 201° |
| 2026-04-30 00:58 | -29.21317 | 117.23757 | 38009 ft | 450 kts | 201° |
| 2026-04-30 00:59 | -29.27161 | 117.21211 | 38012 ft | 449 kts | 201° |
| 2026-04-30 00:59 | -29.32976 | 117.18706 | 38016 ft | 450 kts | 201° |
| 2026-04-30 01:00 | -29.38834 | 117.16184 | 38019 ft | 450 kts | 201° |
| 2026-04-30 01:00 | -29.44251 | 117.12756 | 38013 ft | 447 kts | 226° |
| 2026-04-30 01:01 | -29.46122 | 117.09935 | 38008 ft | 445 kts | 242° |
| 2026-04-30 01:01 | -29.47612 | 117.06823 | 38001 ft | 445 kts | 235° |
| 2026-04-30 01:01 | -29.49670 | 117.04185 | 37998 ft | 445 kts | 218° |
| 2026-04-30 01:01 | -29.52311 | 117.02361 | 37994 ft | 444 kts | 201° |
| 2026-04-30 01:02 | -29.58206 | 117.00198 | 37987 ft | 446 kts | 197° |
| 2026-04-30 01:02 | -29.64171 | 116.98176 | 37987 ft | 448 kts | 196° |
| 2026-04-30 01:03 | -29.70172 | 116.96171 | 37991 ft | 450 kts | 196° |
| 2026-04-30 01:03 | -29.76183 | 116.94153 | 37997 ft | 451 kts | 197° |
| 2026-04-30 01:04 | -29.82209 | 116.92134 | 38005 ft | 451 kts | 196° |
| 2026-04-30 01:04 | -29.88241 | 116.90111 | 38012 ft | 452 kts | 197° |
| 2026-04-30 01:05 | -29.94270 | 116.88077 | 38018 ft | 452 kts | 197° |
| 2026-04-30 01:05 | -30.00305 | 116.86045 | 38024 ft | 452 kts | 197° |
| 2026-04-30 01:06 | -30.06341 | 116.84006 | 38025 ft | 452 kts | 197° |
| 2026-04-30 01:06 | -30.12371 | 116.81956 | 38024 ft | 452 kts | 197° |
| 2026-04-30 01:07 | -30.18408 | 116.79910 | 38024 ft | 452 kts | 197° |
| 2026-04-30 01:07 | -30.24438 | 116.77846 | 38017 ft | 452 kts | 199° |
| 2026-04-30 01:08 | -30.27382 | 116.76530 | 37275 ft | 457 kts | 202° |
| 2026-04-30 01:08 | -30.30346 | 116.75136 | 36356 ft | 462 kts | 202° |
| 2026-04-30 01:08 | -30.33328 | 116.73707 | 35540 ft | 464 kts | 203° |
| 2026-04-30 01:08 | -30.36275 | 116.72283 | 34734 ft | 466 kts | 203° |
| 2026-04-30 01:09 | -30.39314 | 116.70816 | 33875 ft | 468 kts | 202° |
| 2026-04-30 01:09 | -30.42325 | 116.69369 | 33002 ft | 470 kts | 202° |
| 2026-04-30 01:09 | -30.45354 | 116.67921 | 32093 ft | 472 kts | 202° |
| 2026-04-30 01:09 | -30.48394 | 116.66474 | 31159 ft | 473 kts | 202° |
| 2026-04-30 01:10 | -30.51399 | 116.65045 | 30378 ft | 472 kts | 202° |
| 2026-04-30 01:10 | -30.54468 | 116.63586 | 29530 ft | 470 kts | 202° |
| 2026-04-30 01:10 | -30.56478 | 116.62658 | 29004 ft | 469 kts | 201° |
| 2026-04-30 01:10 | -30.60525 | 116.60976 | 28044 ft | 463 kts | 199° |
| 2026-04-30 01:11 | -30.63572 | 116.59823 | 27342 ft | 459 kts | 198° |
| 2026-04-30 01:11 | -30.66600 | 116.58715 | 26633 ft | 454 kts | 198° |
| 2026-04-30 01:11 | -30.68628 | 116.57974 | 26156 ft | 451 kts | 198° |
| 2026-04-30 01:11 | -30.72556 | 116.56505 | 25255 ft | 445 kts | 198° |
| 2026-04-30 01:12 | -30.75477 | 116.55383 | 24598 ft | 440 kts | 199° |
| 2026-04-30 01:12 | -30.77430 | 116.54625 | 24151 ft | 437 kts | 199° |
| 2026-04-30 01:12 | -30.80297 | 116.53504 | 23491 ft | 433 kts | 199° |
| 2026-04-30 01:12 | -30.84049 | 116.52026 | 22639 ft | 427 kts | 199° |
| 2026-04-30 01:13 | -30.85910 | 116.51294 | 22219 ft | 425 kts | 199° |
| 2026-04-30 01:13 | -30.88733 | 116.50187 | 21597 ft | 421 kts | 199° |
| 2026-04-30 01:13 | -30.91458 | 116.49122 | 20993 ft | 417 kts | 199° |
| 2026-04-30 01:13 | -30.94197 | 116.48052 | 20388 ft | 413 kts | 199° |
| 2026-04-30 01:14 | -30.96912 | 116.46992 | 19792 ft | 409 kts | 199° |
| 2026-04-30 01:14 | -30.99597 | 116.45941 | 19209 ft | 405 kts | 199° |
| 2026-04-30 01:14 | -31.02253 | 116.44901 | 18678 ft | 400 kts | 199° |
| 2026-04-30 01:14 | -31.04880 | 116.43872 | 18135 ft | 396 kts | 199° |
| 2026-04-30 01:15 | -31.07479 | 116.42854 | 17593 ft | 392 kts | 199° |
| 2026-04-30 01:15 | -31.10053 | 116.41848 | 17047 ft | 389 kts | 199° |
| 2026-04-30 01:15 | -31.12610 | 116.40847 | 16505 ft | 386 kts | 199° |
| 2026-04-30 01:15 | -31.15145 | 116.39853 | 15969 ft | 383 kts | 199° |
| 2026-04-30 01:16 | -31.17664 | 116.38862 | 15433 ft | 380 kts | 199° |
| 2026-04-30 01:16 | -31.20164 | 116.37878 | 14906 ft | 378 kts | 199° |
| 2026-04-30 01:16 | -31.22644 | 116.36900 | 14377 ft | 375 kts | 199° |
| 2026-04-30 01:16 | -31.25104 | 116.35928 | 13845 ft | 372 kts | 199° |
| 2026-04-30 01:17 | -31.27553 | 116.34963 | 13312 ft | 370 kts | 199° |
| 2026-04-30 01:17 | -31.29979 | 116.34005 | 12775 ft | 367 kts | 199° |
| 2026-04-30 01:17 | -31.32391 | 116.33057 | 12239 ft | 364 kts | 199° |
| 2026-04-30 01:17 | -31.34781 | 116.32114 | 11703 ft | 361 kts | 199° |
| 2026-04-30 01:18 | -31.37151 | 116.31178 | 11161 ft | 358 kts | 199° |
| 2026-04-30 01:18 | -31.39495 | 116.30250 | 10619 ft | 354 kts | 199° |
| 2026-04-30 01:18 | -31.41772 | 116.29278 | 10425 ft | 340 kts | 205° |
| 2026-04-30 01:18 | -31.43812 | 116.28011 | 10344 ft | 325 kts | 209° |
| 2026-04-30 01:19 | -31.45755 | 116.26769 | 10225 ft | 312 kts | 209° |
| 2026-04-30 01:19 | -31.47636 | 116.25569 | 10031 ft | 303 kts | 209° |
| 2026-04-30 01:19 | -31.49455 | 116.24409 | 9858 ft | 294 kts | 209° |
| 2026-04-30 01:19 | -31.51267 | 116.23250 | 9259 ft | 300 kts | 209° |
| 2026-04-30 01:20 | -31.53111 | 116.22072 | 8712 ft | 304 kts | 209° |
| 2026-04-30 01:20 | -31.54976 | 116.20882 | 8173 ft | 306 kts | 209° |
| 2026-04-30 01:20 | -31.56851 | 116.19682 | 7631 ft | 308 kts | 209° |
| 2026-04-30 01:20 | -31.58738 | 116.18471 | 7084 ft | 310 kts | 209° |
| 2026-04-30 01:21 | -31.60626 | 116.17259 | 6670 ft | 306 kts | 209° |
| 2026-04-30 01:21 | -31.62447 | 116.16089 | 6600 ft | 291 kts | 209° |
| 2026-04-30 01:21 | -31.64175 | 116.14979 | 6519 ft | 276 kts | 209° |
| 2026-04-30 01:21 | -31.65847 | 116.13904 | 6057 ft | 277 kts | 209° |
| 2026-04-30 01:22 | -31.67559 | 116.12801 | 5408 ft | 284 kts | 209° |
| 2026-04-30 01:22 | -31.69310 | 116.11673 | 4811 ft | 289 kts | 209° |
| 2026-04-30 01:22 | -31.71088 | 116.10530 | 4208 ft | 293 kts | 209° |
| 2026-04-30 01:22 | -31.72886 | 116.09377 | 3598 ft | 296 kts | 209° |
| 2026-04-30 01:23 | -31.74688 | 116.08180 | 2990 ft | 298 kts | 215° |
| 2026-04-30 01:23 | -31.76138 | 116.06521 | 2802 ft | 284 kts | 233° |
| 2026-04-30 01:23 | -31.77304 | 116.04719 | 2680 ft | 270 kts | 233° |
| 2026-04-30 01:23 | -31.78413 | 116.03007 | 2552 ft | 256 kts | 233° |
| 2026-04-30 01:24 | -31.79493 | 116.01412 | 2443 ft | 243 kts | 225° |
| 2026-04-30 01:24 | -31.80904 | 116.00350 | 2406 ft | 243 kts | 199° |
| 2026-04-30 01:24 | -31.82483 | 115.99863 | 2401 ft | 224 kts | 194° |
| 2026-04-30 01:24 | -31.83920 | 115.99450 | 2401 ft | 202 kts | 194° |
| 2026-04-30 01:25 | -31.85228 | 115.99072 | 2395 ft | 186 kts | 194° |
| 2026-04-30 01:25 | -31.86464 | 115.98708 | 2337 ft | 182 kts | 193° |
| 2026-04-30 01:25 | -31.87732 | 115.98312 | 1637 ft | 197 kts | 193° |
| 2026-04-30 01:25 | -31.89089 | 115.97953 | 1119 ft | 198 kts | 190° |
| 2026-04-30 01:26 | -31.90395 | 115.97652 | 830 ft | 188 kts | 193° |
| 2026-04-30 01:26 | -31.91596 | 115.97279 | 651 ft | 170 kts | 197° |
| 2026-04-30 01:26 | -31.92703 | 115.96868 | 221 ft | 168 kts | 187° |
| 2026-04-30 01:26 | -31.93812 | 115.96599 | 90 ft | 158 kts | 192° |
| 2026-04-30 01:27 | -31.94749 | 115.96294 | 53 ft | 85 kts | 201° |
| 2026-04-30 01:27 | -31.94970 | 115.96217 | 53 ft | 0 kts | 189° |
| 2026-04-30 01:27 | -31.94984 | 115.96215 | 54 ft | 6 kts | 188° |
| 2026-04-30 01:27 | -31.95035 | 115.96178 | 56 ft | 11 kts | 233° |
| 2026-04-30 01:28 | -31.95043 | 115.96075 | 57 ft | 15 kts | 281° |
| 2026-04-30 01:28 | -31.94965 | 115.95998 | 57 ft | 18 kts | 1° |
| 2026-04-30 01:28 | -31.94834 | 115.96030 | 58 ft | 19 kts | 10° |
| 2026-04-30 01:28 | -31.94754 | 115.96054 | 56 ft | 5 kts | 13° |
| 2026-04-30 01:29 | -31.94712 | 115.96066 | 59 ft | 9 kts | 15° |
| 2026-04-30 01:29 | -31.94632 | 115.96093 | 56 ft | 15 kts | 16° |
| 2026-04-30 01:29 | -31.94506 | 115.96137 | 53 ft | 23 kts | 17° |
| 2026-04-30 01:29 | -31.94340 | 115.96177 | 55 ft | 25 kts | 13° |
| 2026-04-30 01:30 | -31.94164 | 115.96228 | 56 ft | 27 kts | 14° |
| 2026-04-30 01:30 | -31.93978 | 115.96253 | 57 ft | 26 kts | 333° |
| 2026-04-30 01:30 | -31.93809 | 115.96192 | 55 ft | 26 kts | 342° |
| 2026-04-30 01:30 | -31.93624 | 115.96187 | 53 ft | 21 kts | 24° |
| 2026-04-30 01:31 | -31.93533 | 115.96179 | 51 ft | 7 kts | 287° |
| 2026-04-30 01:31 | -31.93499 | 115.96115 | 54 ft | 0 kts | 300° |